sensor_id;sensor_type;location;lat;lon;timestamp;P1;durP1;ratioP1;P2;durP2;ratioP2
53714;SDS011;39608;55.630;37.864;2022-11-15T00:00:04;1.02;;;0.73;;
53714;SDS011;39608;55.630;37.864;2022-11-15T00:05:08;1.73;;;0.40;;
53714;SDS011;39608;55.630;37.864;2022-11-15T00:10:11;0.40;;;0.40;;
53714;SDS011;39608;55.630;37.864;2022-11-15T00:15:13;2.10;;;0.75;;
53714;SDS011;39608;55.630;37.864;2022-11-15T00:20:17;0.30;;;0.30;;
53714;SDS011;39608;55.630;37.864;2022-11-15T00:25:19;2.20;;;0.60;;
53714;SDS011;39608;55.630;37.864;2022-11-15T00:30:21;0.90;;;0.60;;
53714;SDS011;39608;55.630;37.864;2022-11-15T00:35:25;2.30;;;0.90;;
53714;SDS011;39608;55.630;37.864;2022-11-15T00:40:33;1.13;;;0.45;;
53714;SDS011;39608;55.630;37.864;2022-11-15T00:45:38;0.70;;;0.65;;
53714;SDS011;39608;55.630;37.864;2022-11-15T00:50:41;0.50;;;0.50;;
53714;SDS011;39608;55.630;37.864;2022-11-15T00:55:44;0.40;;;0.40;;
53714;SDS011;39608;55.630;37.864;2022-11-15T01:00:46;0.65;;;0.60;;
53714;SDS011;39608;55.630;37.864;2022-11-15T01:05:49;0.63;;;0.47;;
53714;SDS011;39608;55.630;37.864;2022-11-15T01:10:51;1.08;;;0.57;;
53714;SDS011;39608;55.630;37.864;2022-11-15T01:15:54;1.23;;;0.50;;
53714;SDS011;39608;55.630;37.864;2022-11-15T01:20:57;0.80;;;0.40;;
53714;SDS011;39608;55.630;37.864;2022-11-15T01:25:59;1.35;;;0.52;;
53714;SDS011;39608;55.630;37.864;2022-11-15T01:31:03;0.90;;;0.68;;
53714;SDS011;39608;55.630;37.864;2022-11-15T01:36:10;1.10;;;0.60;;
53714;SDS011;39608;55.630;37.864;2022-11-15T01:41:14;3.63;;;0.80;;
53714;SDS011;39608;55.630;37.864;2022-11-15T01:46:21;0.60;;;0.60;;
53714;SDS011;39608;55.630;37.864;2022-11-15T01:51:31;2.67;;;0.95;;
53714;SDS011;39608;55.630;37.864;2022-11-15T01:56:36;1.48;;;0.98;;
53714;SDS011;39608;55.630;37.864;2022-11-15T02:01:45;1.98;;;0.80;;
53714;SDS011;39608;55.630;37.864;2022-11-15T02:06:49;2.05;;;0.80;;
53714;SDS011;39608;55.630;37.864;2022-11-15T02:11:51;2.30;;;0.73;;
53714;SDS011;39608;55.630;37.864;2022-11-15T02:16:58;6.95;;;1.13;;
53714;SDS011;39608;55.630;37.864;2022-11-15T02:22:09;4.78;;;0.82;;
53714;SDS011;39608;55.630;37.864;2022-11-15T02:27:42;7.50;;;0.73;;
53714;SDS011;39608;55.630;37.864;2022-11-15T02:33:03;1.67;;;0.52;;
53714;SDS011;39608;55.630;37.864;2022-11-15T02:38:16;1.48;;;0.50;;
53714;SDS011;39608;55.630;37.864;2022-11-15T02:43:25;4.70;;;0.75;;
53714;SDS011;39608;55.630;37.864;2022-11-15T02:48:51;0.43;;;0.43;;
53714;SDS011;39608;55.630;37.864;2022-11-15T02:53:53;2.28;;;0.60;;
53714;SDS011;39608;55.630;37.864;2022-11-15T02:59:05;4.78;;;0.55;;
53714;SDS011;39608;55.630;37.864;2022-11-15T03:04:23;1.05;;;0.60;;
53714;SDS011;39608;55.630;37.864;2022-11-15T03:09:33;2.13;;;0.65;;
53714;SDS011;39608;55.630;37.864;2022-11-15T03:14:41;0.98;;;0.55;;
53714;SDS011;39608;55.630;37.864;2022-11-15T03:19:55;4.10;;;0.75;;
53714;SDS011;39608;55.630;37.864;2022-11-15T03:25:02;1.45;;;0.70;;
53714;SDS011;39608;55.630;37.864;2022-11-15T03:30:08;2.08;;;0.98;;
53714;SDS011;39608;55.630;37.864;2022-11-15T03:35:15;0.88;;;0.63;;
53714;SDS011;39608;55.630;37.864;2022-11-15T03:40:22;1.13;;;0.70;;
53714;SDS011;39608;55.630;37.864;2022-11-15T03:45:28;1.60;;;0.60;;
53714;SDS011;39608;55.630;37.864;2022-11-15T03:50:36;2.08;;;0.50;;
53714;SDS011;39608;55.630;37.864;2022-11-15T03:55:38;3.58;;;0.57;;
53714;SDS011;39608;55.630;37.864;2022-11-15T04:00:42;2.28;;;0.57;;
53714;SDS011;39608;55.630;37.864;2022-11-15T04:05:46;0.55;;;0.55;;
53714;SDS011;39608;55.630;37.864;2022-11-15T04:10:48;3.40;;;0.77;;
53714;SDS011;39608;55.630;37.864;2022-11-15T04:16:09;2.05;;;0.82;;
53714;SDS011;39608;55.630;37.864;2022-11-15T04:21:20;1.08;;;0.63;;
53714;SDS011;39608;55.630;37.864;2022-11-15T04:26:39;2.75;;;0.60;;
53714;SDS011;39608;55.630;37.864;2022-11-15T04:32:00;3.97;;;0.70;;
53714;SDS011;39608;55.630;37.864;2022-11-15T04:37:22;2.38;;;0.50;;
53714;SDS011;39608;55.630;37.864;2022-11-15T04:42:47;0.73;;;0.65;;
53714;SDS011;39608;55.630;37.864;2022-11-15T04:48:08;1.35;;;0.88;;
53714;SDS011;39608;55.630;37.864;2022-11-15T04:53:12;0.93;;;0.60;;
53714;SDS011;39608;55.630;37.864;2022-11-15T04:58:14;2.50;;;0.60;;
53714;SDS011;39608;55.630;37.864;2022-11-15T05:03:16;0.90;;;0.50;;
53714;SDS011;39608;55.630;37.864;2022-11-15T05:08:37;5.43;;;0.77;;
53714;SDS011;39608;55.630;37.864;2022-11-15T05:13:39;4.13;;;0.88;;
53714;SDS011;39608;55.630;37.864;2022-11-15T05:18:41;0.68;;;0.60;;
53714;SDS011;39608;55.630;37.864;2022-11-15T05:23:44;0.98;;;0.55;;
53714;SDS011;39608;55.630;37.864;2022-11-15T05:28:51;4.75;;;1.27;;
53714;SDS011;39608;55.630;37.864;2022-11-15T05:33:54;2.60;;;0.88;;
53714;SDS011;39608;55.630;37.864;2022-11-15T05:38:59;1.50;;;0.60;;
53714;SDS011;39608;55.630;37.864;2022-11-15T05:44:01;3.30;;;0.82;;
53714;SDS011;39608;55.630;37.864;2022-11-15T05:49:04;3.70;;;1.00;;
53714;SDS011;39608;55.630;37.864;2022-11-15T05:54:10;2.85;;;0.90;;
53714;SDS011;39608;55.630;37.864;2022-11-15T05:59:13;1.63;;;0.93;;
53714;SDS011;39608;55.630;37.864;2022-11-15T06:04:15;3.00;;;0.90;;
53714;SDS011;39608;55.630;37.864;2022-11-15T06:09:19;4.00;;;1.15;;
53714;SDS011;39608;55.630;37.864;2022-11-15T06:14:21;4.88;;;1.23;;
53714;SDS011;39608;55.630;37.864;2022-11-15T06:19:23;4.82;;;1.50;;
53714;SDS011;39608;55.630;37.864;2022-11-15T06:24:26;5.38;;;1.42;;
53714;SDS011;39608;55.630;37.864;2022-11-15T06:29:28;3.15;;;1.17;;
53714;SDS011;39608;55.630;37.864;2022-11-15T06:34:30;5.60;;;0.70;;
53714;SDS011;39608;55.630;37.864;2022-11-15T06:39:34;0.85;;;0.70;;
53714;SDS011;39608;55.630;37.864;2022-11-15T06:44:36;2.33;;;0.70;;
53714;SDS011;39608;55.630;37.864;2022-11-15T06:49:38;1.48;;;0.73;;
53714;SDS011;39608;55.630;37.864;2022-11-15T06:54:41;0.90;;;0.50;;
53714;SDS011;39608;55.630;37.864;2022-11-15T06:59:46;3.72;;;1.02;;
53714;SDS011;39608;55.630;37.864;2022-11-15T07:04:48;4.22;;;1.10;;
53714;SDS011;39608;55.630;37.864;2022-11-15T07:09:52;2.97;;;0.93;;
53714;SDS011;39608;55.630;37.864;2022-11-15T07:14:54;3.50;;;1.10;;
53714;SDS011;39608;55.630;37.864;2022-11-15T07:19:56;2.58;;;1.00;;
53714;SDS011;39608;55.630;37.864;2022-11-15T07:25:01;1.17;;;0.80;;
53714;SDS011;39608;55.630;37.864;2022-11-15T07:30:04;0.60;;;0.60;;
53714;SDS011;39608;55.630;37.864;2022-11-15T07:35:07;1.10;;;0.82;;
53714;SDS011;39608;55.630;37.864;2022-11-15T07:40:11;2.60;;;1.27;;
53714;SDS011;39608;55.630;37.864;2022-11-15T07:45:14;2.70;;;1.23;;
53714;SDS011;39608;55.630;37.864;2022-11-15T07:50:16;4.03;;;0.73;;
53714;SDS011;39608;55.630;37.864;2022-11-15T07:55:20;1.80;;;1.15;;
53714;SDS011;39608;55.630;37.864;2022-11-15T08:00:22;1.83;;;1.30;;
53714;SDS011;39608;55.630;37.864;2022-11-15T08:05:24;2.42;;;1.15;;
53714;SDS011;39608;55.630;37.864;2022-11-15T08:10:28;2.55;;;0.98;;
53714;SDS011;39608;55.630;37.864;2022-11-15T08:15:32;2.85;;;1.45;;
53714;SDS011;39608;55.630;37.864;2022-11-15T08:20:35;2.42;;;1.15;;
53714;SDS011;39608;55.630;37.864;2022-11-15T08:25:39;10.18;;;1.42;;
53714;SDS011;39608;55.630;37.864;2022-11-15T08:30:41;3.00;;;1.00;;
53714;SDS011;39608;55.630;37.864;2022-11-15T08:35:45;2.65;;;1.08;;
53714;SDS011;39608;55.630;37.864;2022-11-15T08:40:49;2.78;;;1.48;;
53714;SDS011;39608;55.630;37.864;2022-11-15T08:45:55;5.60;;;1.98;;
53714;SDS011;39608;55.630;37.864;2022-11-15T08:50:57;10.57;;;1.25;;
53714;SDS011;39608;55.630;37.864;2022-11-15T08:56:01;5.97;;;1.33;;
53714;SDS011;39608;55.630;37.864;2022-11-15T09:01:03;3.05;;;1.38;;
53714;SDS011;39608;55.630;37.864;2022-11-15T09:06:06;1.45;;;1.15;;
53714;SDS011;39608;55.630;37.864;2022-11-15T09:11:10;4.88;;;1.10;;
53714;SDS011;39608;55.630;37.864;2022-11-15T09:16:12;6.70;;;1.55;;
53714;SDS011;39608;55.630;37.864;2022-11-15T09:21:15;2.28;;;1.25;;
53714;SDS011;39608;55.630;37.864;2022-11-15T09:26:19;1.83;;;1.20;;
53714;SDS011;39608;55.630;37.864;2022-11-15T09:31:21;1.65;;;1.13;;
53714;SDS011;39608;55.630;37.864;2022-11-15T09:36:23;3.58;;;1.20;;
53714;SDS011;39608;55.630;37.864;2022-11-15T09:41:40;4.13;;;1.23;;
53714;SDS011;39608;55.630;37.864;2022-11-15T09:46:54;1.80;;;1.13;;
53714;SDS011;39608;55.630;37.864;2022-11-15T09:52:02;5.22;;;1.48;;
53714;SDS011;39608;55.630;37.864;2022-11-15T09:57:10;10.50;;;1.63;;
53714;SDS011;39608;55.630;37.864;2022-11-15T10:02:19;1.98;;;0.95;;
53714;SDS011;39608;55.630;37.864;2022-11-15T10:07:34;4.43;;;1.35;;
53714;SDS011;39608;55.630;37.864;2022-11-15T10:12:45;4.78;;;1.40;;
53714;SDS011;39608;55.630;37.864;2022-11-15T10:18:05;5.43;;;1.83;;
53714;SDS011;39608;55.630;37.864;2022-11-15T10:23:18;12.02;;;1.75;;
53714;SDS011;39608;55.630;37.864;2022-11-15T10:28:25;5.03;;;1.30;;
53714;SDS011;39608;55.630;37.864;2022-11-15T10:33:30;3.10;;;1.52;;
53714;SDS011;39608;55.630;37.864;2022-11-15T10:38:38;3.95;;;1.50;;
53714;SDS011;39608;55.630;37.864;2022-11-15T10:44:03;4.00;;;1.60;;
53714;SDS011;39608;55.630;37.864;2022-11-15T10:49:12;16.67;;;1.08;;
53714;SDS011;39608;55.630;37.864;2022-11-15T10:54:18;6.47;;;1.52;;
53714;SDS011;39608;55.630;37.864;2022-11-15T10:59:27;12.70;;;2.05;;
53714;SDS011;39608;55.630;37.864;2022-11-15T11:04:39;6.32;;;1.73;;
53714;SDS011;39608;55.630;37.864;2022-11-15T11:09:56;3.17;;;1.50;;
53714;SDS011;39608;55.630;37.864;2022-11-15T11:15:05;5.30;;;1.48;;
53714;SDS011;39608;55.630;37.864;2022-11-15T11:20:16;3.03;;;1.35;;
53714;SDS011;39608;55.630;37.864;2022-11-15T11:25:26;4.00;;;1.42;;
53714;SDS011;39608;55.630;37.864;2022-11-15T11:30:38;7.07;;;1.67;;
53714;SDS011;39608;55.630;37.864;2022-11-15T11:35:55;6.13;;;1.50;;
53714;SDS011;39608;55.630;37.864;2022-11-15T11:41:05;3.97;;;1.48;;
53714;SDS011;39608;55.630;37.864;2022-11-15T11:46:23;2.33;;;1.27;;
53714;SDS011;39608;55.630;37.864;2022-11-15T11:51:47;8.80;;;1.55;;
53714;SDS011;39608;55.630;37.864;2022-11-15T11:56:54;2.78;;;1.30;;
53714;SDS011;39608;55.630;37.864;2022-11-15T12:02:02;1.98;;;1.00;;
53714;SDS011;39608;55.630;37.864;2022-11-15T12:07:17;3.30;;;1.27;;
53714;SDS011;39608;55.630;37.864;2022-11-15T12:12:25;5.53;;;1.85;;
53714;SDS011;39608;55.630;37.864;2022-11-15T12:17:35;2.08;;;1.17;;
53714;SDS011;39608;55.630;37.864;2022-11-15T12:22:41;3.67;;;1.02;;
53714;SDS011;39608;55.630;37.864;2022-11-15T12:27:48;3.70;;;1.05;;
53714;SDS011;39608;55.630;37.864;2022-11-15T12:32:58;1.83;;;1.20;;
53714;SDS011;39608;55.630;37.864;2022-11-15T12:38:01;5.93;;;1.40;;
53714;SDS011;39608;55.630;37.864;2022-11-15T12:48:48;6.97;;;1.92;;
53714;SDS011;39608;55.630;37.864;2022-11-15T12:53:52;3.08;;;1.10;;
53714;SDS011;39608;55.630;37.864;2022-11-15T12:58:55;5.50;;;1.48;;
53714;SDS011;39608;55.630;37.864;2022-11-15T13:04:11;3.33;;;1.63;;
53714;SDS011;39608;55.630;37.864;2022-11-15T13:14:54;8.82;;;2.45;;
53714;SDS011;39608;55.630;37.864;2022-11-15T13:20:11;4.68;;;2.28;;
53714;SDS011;39608;55.630;37.864;2022-11-15T13:31:13;4.13;;;1.90;;
53714;SDS011;39608;55.630;37.864;2022-11-15T13:36:43;6.07;;;1.95;;
53714;SDS011;39608;55.630;37.864;2022-11-15T13:42:03;4.25;;;2.05;;
53714;SDS011;39608;55.630;37.864;2022-11-15T13:47:25;2.60;;;1.48;;
53714;SDS011;39608;55.630;37.864;2022-11-15T13:52:49;3.33;;;1.92;;
53714;SDS011;39608;55.630;37.864;2022-11-15T13:58:11;5.78;;;2.95;;
53714;SDS011;39608;55.630;37.864;2022-11-15T14:03:32;9.43;;;4.45;;
53714;SDS011;39608;55.630;37.864;2022-11-15T14:09:24;4.93;;;2.30;;
53714;SDS011;39608;55.630;37.864;2022-11-15T14:14:51;4.43;;;2.33;;
53714;SDS011;39608;55.630;37.864;2022-11-15T14:20:19;4.35;;;2.15;;
53714;SDS011;39608;55.630;37.864;2022-11-15T14:25:55;5.03;;;2.58;;
53714;SDS011;39608;55.630;37.864;2022-11-15T14:31:16;5.93;;;3.08;;
53714;SDS011;39608;55.630;37.864;2022-11-15T14:36:37;9.85;;;1.90;;
53714;SDS011;39608;55.630;37.864;2022-11-15T14:41:59;4.05;;;2.20;;
53714;SDS011;39608;55.630;37.864;2022-11-15T14:47:20;4.07;;;1.48;;
53714;SDS011;39608;55.630;37.864;2022-11-15T14:52:41;2.92;;;1.30;;
53714;SDS011;39608;55.630;37.864;2022-11-15T14:58:03;4.03;;;1.67;;
53714;SDS011;39608;55.630;37.864;2022-11-15T15:04:14;7.45;;;1.60;;
53714;SDS011;39608;55.630;37.864;2022-11-15T15:09:16;6.07;;;3.10;;
53714;SDS011;39608;55.630;37.864;2022-11-15T15:14:18;3.13;;;1.65;;
53714;SDS011;39608;55.630;37.864;2022-11-15T15:19:22;2.50;;;1.65;;
53714;SDS011;39608;55.630;37.864;2022-11-15T15:24:24;5.22;;;2.50;;
53714;SDS011;39608;55.630;37.864;2022-11-15T15:29:26;6.18;;;1.70;;
53714;SDS011;39608;55.630;37.864;2022-11-15T15:34:30;6.95;;;2.05;;
53714;SDS011;39608;55.630;37.864;2022-11-15T15:39:33;3.45;;;2.03;;
53714;SDS011;39608;55.630;37.864;2022-11-15T15:44:35;4.97;;;1.75;;
53714;SDS011;39608;55.630;37.864;2022-11-15T15:49:38;5.80;;;2.58;;
53714;SDS011;39608;55.630;37.864;2022-11-15T15:54:40;3.00;;;1.58;;
53714;SDS011;39608;55.630;37.864;2022-11-15T15:59:43;4.07;;;1.50;;
53714;SDS011;39608;55.630;37.864;2022-11-15T16:04:46;7.20;;;1.60;;
53714;SDS011;39608;55.630;37.864;2022-11-15T16:09:48;1.38;;;1.17;;
53714;SDS011;39608;55.630;37.864;2022-11-15T16:15:04;3.20;;;1.70;;
53714;SDS011;39608;55.630;37.864;2022-11-15T16:20:10;2.47;;;1.40;;
53714;SDS011;39608;55.630;37.864;2022-11-15T16:25:24;3.75;;;1.40;;
53714;SDS011;39608;55.630;37.864;2022-11-15T16:30:26;1.73;;;1.23;;
53714;SDS011;39608;55.630;37.864;2022-11-15T16:35:30;6.28;;;2.13;;
53714;SDS011;39608;55.630;37.864;2022-11-15T16:40:33;3.78;;;1.52;;
53714;SDS011;39608;55.630;37.864;2022-11-15T16:45:37;4.15;;;1.80;;
53714;SDS011;39608;55.630;37.864;2022-11-15T16:50:41;5.05;;;2.50;;
53714;SDS011;39608;55.630;37.864;2022-11-15T16:55:43;4.38;;;1.80;;
53714;SDS011;39608;55.630;37.864;2022-11-15T17:00:46;3.90;;;2.38;;
53714;SDS011;39608;55.630;37.864;2022-11-15T17:05:53;2.58;;;1.92;;
53714;SDS011;39608;55.630;37.864;2022-11-15T17:10:59;4.63;;;2.13;;
53714;SDS011;39608;55.630;37.864;2022-11-15T17:16:08;3.17;;;1.63;;
53714;SDS011;39608;55.630;37.864;2022-11-15T17:21:13;7.78;;;2.10;;
53714;SDS011;39608;55.630;37.864;2022-11-15T17:26:16;2.58;;;1.80;;
53714;SDS011;39608;55.630;37.864;2022-11-15T17:31:18;4.28;;;2.03;;
53714;SDS011;39608;55.630;37.864;2022-11-15T17:36:21;4.40;;;1.92;;
53714;SDS011;39608;55.630;37.864;2022-11-15T17:41:23;3.65;;;1.92;;
53714;SDS011;39608;55.630;37.864;2022-11-15T17:46:26;3.58;;;2.20;;
53714;SDS011;39608;55.630;37.864;2022-11-15T17:51:30;2.67;;;1.45;;
53714;SDS011;39608;55.630;37.864;2022-11-15T17:56:33;5.10;;;2.03;;
53714;SDS011;39608;55.630;37.864;2022-11-15T18:01:38;5.60;;;1.85;;
53714;SDS011;39608;55.630;37.864;2022-11-15T18:06:42;4.20;;;1.75;;
53714;SDS011;39608;55.630;37.864;2022-11-15T18:11:44;2.35;;;1.67;;
53714;SDS011;39608;55.630;37.864;2022-11-15T18:16:50;2.83;;;1.63;;
53714;SDS011;39608;55.630;37.864;2022-11-15T18:21:56;4.10;;;2.30;;
53714;SDS011;39608;55.630;37.864;2022-11-15T18:26:58;2.88;;;1.73;;
53714;SDS011;39608;55.630;37.864;2022-11-15T18:32:02;2.72;;;1.70;;
53714;SDS011;39608;55.630;37.864;2022-11-15T18:37:11;3.53;;;1.50;;
53714;SDS011;39608;55.630;37.864;2022-11-15T18:42:13;4.57;;;1.95;;
53714;SDS011;39608;55.630;37.864;2022-11-15T18:47:15;3.10;;;1.92;;
53714;SDS011;39608;55.630;37.864;2022-11-15T18:52:19;2.75;;;1.75;;
53714;SDS011;39608;55.630;37.864;2022-11-15T18:57:21;3.38;;;2.00;;
53714;SDS011;39608;55.630;37.864;2022-11-15T19:02:24;5.43;;;2.22;;
53714;SDS011;39608;55.630;37.864;2022-11-15T19:07:28;4.15;;;2.33;;
53714;SDS011;39608;55.630;37.864;2022-11-15T19:12:30;4.95;;;2.33;;
53714;SDS011;39608;55.630;37.864;2022-11-15T19:17:33;4.10;;;2.33;;
53714;SDS011;39608;55.630;37.864;2022-11-15T19:22:39;6.75;;;2.67;;
53714;SDS011;39608;55.630;37.864;2022-11-15T19:27:41;7.70;;;3.63;;
53714;SDS011;39608;55.630;37.864;2022-11-15T19:32:43;8.70;;;3.85;;
53714;SDS011;39608;55.630;37.864;2022-11-15T19:37:47;8.32;;;3.92;;
53714;SDS011;39608;55.630;37.864;2022-11-15T19:42:49;8.27;;;4.40;;
53714;SDS011;39608;55.630;37.864;2022-11-15T19:47:52;10.52;;;4.55;;
53714;SDS011;39608;55.630;37.864;2022-11-15T19:52:55;8.65;;;4.50;;
53714;SDS011;39608;55.630;37.864;2022-11-15T19:57:59;16.35;;;6.05;;
53714;SDS011;39608;55.630;37.864;2022-11-15T20:03:01;18.10;;;6.13;;
53714;SDS011;39608;55.630;37.864;2022-11-15T20:08:05;15.38;;;6.65;;
53714;SDS011;39608;55.630;37.864;2022-11-15T20:13:09;15.82;;;5.85;;
53714;SDS011;39608;55.630;37.864;2022-11-15T20:18:11;22.40;;;7.00;;
53714;SDS011;39608;55.630;37.864;2022-11-15T20:23:15;32.85;;;5.93;;
53714;SDS011;39608;55.630;37.864;2022-11-15T20:28:17;14.20;;;5.57;;
53714;SDS011;39608;55.630;37.864;2022-11-15T20:33:21;12.82;;;5.78;;
53714;SDS011;39608;55.630;37.864;2022-11-15T20:38:25;14.90;;;5.07;;
53714;SDS011;39608;55.630;37.864;2022-11-15T20:43:27;10.00;;;4.63;;
53714;SDS011;39608;55.630;37.864;2022-11-15T20:48:29;12.15;;;4.28;;
53714;SDS011;39608;55.630;37.864;2022-11-15T20:53:33;11.32;;;4.68;;
53714;SDS011;39608;55.630;37.864;2022-11-15T20:58:35;9.82;;;4.50;;
53714;SDS011;39608;55.630;37.864;2022-11-15T21:03:38;12.68;;;4.82;;
53714;SDS011;39608;55.630;37.864;2022-11-15T21:08:42;6.90;;;3.78;;
53714;SDS011;39608;55.630;37.864;2022-11-15T21:14:01;9.10;;;4.28;;
53714;SDS011;39608;55.630;37.864;2022-11-15T21:19:04;7.65;;;4.15;;
53714;SDS011;39608;55.630;37.864;2022-11-15T21:24:08;10.23;;;3.83;;
53714;SDS011;39608;55.630;37.864;2022-11-15T21:29:11;7.30;;;3.42;;
53714;SDS011;39608;55.630;37.864;2022-11-15T21:34:21;7.68;;;3.33;;
53714;SDS011;39608;55.630;37.864;2022-11-15T21:39:25;8.50;;;4.18;;
53714;SDS011;39608;55.630;37.864;2022-11-15T21:44:27;7.10;;;2.95;;
53714;SDS011;39608;55.630;37.864;2022-11-15T21:49:30;7.88;;;2.83;;
53714;SDS011;39608;55.630;37.864;2022-11-15T21:54:33;3.85;;;2.30;;
53714;SDS011;39608;55.630;37.864;2022-11-15T21:59:35;10.50;;;3.20;;
53714;SDS011;39608;55.630;37.864;2022-11-15T22:04:58;3.97;;;2.30;;
53714;SDS011;39608;55.630;37.864;2022-11-15T22:10:01;4.88;;;2.50;;
53714;SDS011;39608;55.630;37.864;2022-11-15T22:15:04;5.53;;;2.58;;
53714;SDS011;39608;55.630;37.864;2022-11-15T22:20:07;4.28;;;2.65;;
53714;SDS011;39608;55.630;37.864;2022-11-15T22:25:11;8.32;;;2.78;;
53714;SDS011;39608;55.630;37.864;2022-11-15T22:30:13;4.00;;;2.63;;
53714;SDS011;39608;55.630;37.864;2022-11-15T22:35:15;6.03;;;2.80;;
53714;SDS011;39608;55.630;37.864;2022-11-15T22:40:19;7.30;;;2.55;;
53714;SDS011;39608;55.630;37.864;2022-11-15T22:45:21;6.40;;;2.50;;
53714;SDS011;39608;55.630;37.864;2022-11-15T22:50:24;3.78;;;2.22;;
53714;SDS011;39608;55.630;37.864;2022-11-15T22:55:28;8.05;;;2.50;;
53714;SDS011;39608;55.630;37.864;2022-11-15T23:00:30;3.67;;;2.60;;
53714;SDS011;39608;55.630;37.864;2022-11-15T23:05:32;5.93;;;1.83;;
53714;SDS011;39608;55.630;37.864;2022-11-15T23:10:36;6.68;;;2.53;;
53714;SDS011;39608;55.630;37.864;2022-11-15T23:16:00;8.25;;;2.25;;
53714;SDS011;39608;55.630;37.864;2022-11-15T23:21:22;5.00;;;2.25;;
53714;SDS011;39608;55.630;37.864;2022-11-15T23:26:45;3.42;;;2.05;;
53714;SDS011;39608;55.630;37.864;2022-11-15T23:31:48;6.20;;;1.92;;
53714;SDS011;39608;55.630;37.864;2022-11-15T23:37:09;4.18;;;1.85;;
53714;SDS011;39608;55.630;37.864;2022-11-15T23:42:16;3.93;;;1.80;;
53714;SDS011;39608;55.630;37.864;2022-11-15T23:47:19;4.82;;;2.33;;
53714;SDS011;39608;55.630;37.864;2022-11-15T23:52:22;2.97;;;1.75;;
53714;SDS011;39608;55.630;37.864;2022-11-15T23:57:26;4.72;;;1.85;;
